Time;durP1;ratioP1;P1;durP2;ratioP2;P2;SDS_P1;SDS_P2;PMS_P1;PMS_P2;Temp;Humidity;BMP_temperature;BMP_pressure;BME280_temperature;BME280_humidity;BME280_pressure;Samples;Min_cycle;Max_cycle;Signal;HPM_P1;HPM_P2
2023/04/21 00:02:14;;;;;;;24.27;13.35;;;;;;;;;;4963904;28;94272;-68
2023/04/21 00:04:44;;;;;;;19.85;12.30;;;;;;;;;;4969026;28;92475;-69
2023/04/21 00:07:13;;;;;;;18.52;12.18;;;;;;;;;;4972561;28;93207;-69
2023/04/21 00:09:39;;;;;;;18.48;12.68;;;;;;;;;;4971831;28;94001;-69
2023/04/21 00:12:06;;;;;;;17.20;11.93;;;;;;;;;;4970050;28;92512;-69
2023/04/21 00:14:32;;;;;;;19.23;12.43;;;;;;;;;;4961800;28;94906;-69
2023/04/21 00:16:59;;;;;;;21.80;13.52;;;;;;;;;;4968042;28;93280;-68
2023/04/21 00:19:25;;;;;;;21.75;12.02;;;;;;;;;;4970187;28;94345;-68
2023/04/21 00:21:57;;;;;;;25.30;13.25;;;;;;;;;;4962790;28;93573;-68
2023/04/21 00:24:24;;;;;;;19.17;12.55;;;;;;;;;;4975494;28;93440;-68
2023/04/21 00:26:50;;;;;;;21.00;13.32;;;;;;;;;;4971701;28;93831;-68
2023/04/21 00:29:17;;;;;;;23.75;13.38;;;;;;;;;;4967519;28;94402;-69
2023/04/21 00:31:44;;;;;;;21.90;13.38;;;;;;;;;;4972111;28;91682;-69
2023/04/21 00:34:10;;;;;;;24.52;13.52;;;;;;;;;;4971342;28;93494;-69
2023/04/21 00:36:36;;;;;;;24.15;14.35;;;;;;;;;;4971175;28;94361;-68
2023/04/21 00:39:02;;;;;;;26.02;14.48;;;;;;;;;;4969319;28;94901;-69
2023/04/21 00:41:29;;;;;;;24.13;14.25;;;;;;;;;;4964072;28;95781;-69
2023/04/21 00:43:59;;;;;;;24.77;14.25;;;;;;;;;;4964278;28;93610;-68
2023/04/21 00:46:26;;;;;;;22.60;14.07;;;;;;;;;;4974786;28;92843;-69
2023/04/21 00:48:52;;;;;;;25.92;15.88;;;;;;;;;;4967010;28;94153;-69
2023/04/21 00:51:19;;;;;;;23.10;14.65;;;;;;;;;;4965241;28;92454;-68
2023/04/21 00:53:45;;;;;;;26.67;15.65;;;;;;;;;;4963874;28;93214;-69
2023/04/21 00:56:12;;;;;;;27.05;16.00;;;;;;;;;;4964628;28;93370;-69
2023/04/21 00:58:40;;;;;;;27.58;16.75;;;;;;;;;;4973293;28;92570;-68
2023/04/21 01:01:07;;;;;;;25.77;16.42;;;;;;;;;;4964025;28;93801;-68
2023/04/21 01:03:34;;;;;;;29.05;17.15;;;;;;;;;;4972529;28;95790;-68
2023/04/21 01:06:01;;;;;;;25.30;15.63;;;;;;;;;;4971427;28;92895;-68
2023/04/21 01:08:27;;;;;;;29.48;16.80;;;;;;;;;;4979172;28;93302;-68
2023/04/21 01:10:54;;;;;;;26.20;16.15;;;;;;;;;;4976458;28;92676;-68
2023/04/21 01:13:23;;;;;;;26.95;16.80;;;;;;;;;;4975972;28;93161;-68
2023/04/21 01:15:49;;;;;;;22.83;14.98;;;;;;;;;;4976123;28;93381;-68
2023/04/21 01:18:17;;;;;;;23.77;15.68;;;;;;;;;;4961534;28;92570;-68
2023/04/21 01:20:43;;;;;;;27.20;16.83;;;;;;;;;;4957749;28;94678;-68
2023/04/21 01:23:10;;;;;;;24.27;16.42;;;;;;;;;;4955832;28;93635;-68
2023/04/21 01:25:36;;;;;;;30.67;17.30;;;;;;;;;;4974988;28;92553;-68
2023/04/21 01:28:02;;;;;;;26.38;17.42;;;;;;;;;;4974450;28;95022;-68
2023/04/21 01:30:29;;;;;;;27.70;17.13;;;;;;;;;;4978995;28;93426;-68
2023/04/21 01:32:57;;;;;;;30.08;17.60;;;;;;;;;;4971358;28;93198;-68
2023/04/21 01:35:23;;;;;;;27.20;17.17;;;;;;;;;;4970191;28;93826;-68
2023/04/21 01:37:50;;;;;;;30.48;18.00;;;;;;;;;;4971201;28;92443;-68
2023/04/21 01:40:16;;;;;;;25.58;16.88;;;;;;;;;;4968925;28;93142;-68
2023/04/21 01:42:42;;;;;;;26.00;17.27;;;;;;;;;;4974885;28;93496;-68
2023/04/21 01:45:09;;;;;;;26.10;17.17;;;;;;;;;;4974897;28;93709;-68
2023/04/21 01:47:35;;;;;;;26.30;16.95;;;;;;;;;;4973629;28;92526;-68
2023/04/21 01:50:02;;;;;;;29.50;18.02;;;;;;;;;;4968952;28;93995;-68
2023/04/21 01:52:29;;;;;;;25.35;17.25;;;;;;;;;;4972071;28;94865;-68
2023/04/21 01:54:55;;;;;;;29.02;17.67;;;;;;;;;;4970495;28;93398;-68
2023/04/21 01:57:21;;;;;;;37.95;18.05;;;;;;;;;;4963934;28;93199;-68
2023/04/21 01:59:48;;;;;;;29.17;18.83;;;;;;;;;;4972326;28;94299;-68
2023/04/21 02:02:14;;;;;;;26.90;17.45;;;;;;;;;;4964139;28;94058;-68
2023/04/21 02:04:41;;;;;;;33.42;18.05;;;;;;;;;;4971313;28;92456;-68
2023/04/21 02:07:07;;;;;;;29.40;18.52;;;;;;;;;;4970889;28;94192;-68
2023/04/21 02:09:33;;;;;;;31.83;18.38;;;;;;;;;;4974994;28;92727;-68
2023/04/21 02:12:01;;;;;;;32.17;19.45;;;;;;;;;;4977174;28;92392;-68
2023/04/21 02:14:27;;;;;;;33.33;19.52;;;;;;;;;;4972916;28;93436;-68
2023/04/21 02:16:54;;;;;;;33.97;19.95;;;;;;;;;;4962549;28;95372;-68
2023/04/21 02:19:21;;;;;;;29.83;19.58;;;;;;;;;;4969194;28;95713;-68
2023/04/21 02:21:47;;;;;;;29.70;18.98;;;;;;;;;;4962578;28;93686;-68
2023/04/21 02:24:14;;;;;;;30.30;18.45;;;;;;;;;;4971769;28;92450;-68
2023/04/21 02:26:40;;;;;;;28.33;18.42;;;;;;;;;;4974385;28;93298;-68
2023/04/21 02:29:06;;;;;;;33.17;19.75;;;;;;;;;;4973383;28;93404;-68
2023/04/21 02:31:33;;;;;;;31.10;19.67;;;;;;;;;;4972538;28;93187;-68
2023/04/21 02:34:11;;;;;;;35.53;20.80;;;;;;;;;;4975096;28;93264;-68
2023/04/21 02:36:37;;;;;;;34.05;20.48;;;;;;;;;;4970407;28;92581;-68
2023/04/21 02:39:04;;;;;;;32.17;19.40;;;;;;;;;;4970838;28;94622;-68
2023/04/21 02:41:30;;;;;;;30.83;19.63;;;;;;;;;;4970473;28;96899;-68
2023/04/21 02:43:56;;;;;;;29.52;19.77;;;;;;;;;;4974076;28;92472;-68
2023/04/21 02:46:23;;;;;;;31.85;20.17;;;;;;;;;;4973087;28;92928;-68
2023/04/21 02:48:49;;;;;;;38.70;21.20;;;;;;;;;;4971090;28;93557;-68
2023/04/21 02:51:15;;;;;;;31.40;20.10;;;;;;;;;;4969144;28;92532;-68
2023/04/21 02:53:42;;;;;;;32.05;19.75;;;;;;;;;;4972501;28;93285;-68
2023/04/21 02:56:08;;;;;;;31.33;20.23;;;;;;;;;;4971006;28;93308;-68
2023/04/21 02:58:35;;;;;;;32.13;21.23;;;;;;;;;;4972126;28;93565;-68
2023/04/21 03:01:02;;;;;;;32.50;20.35;;;;;;;;;;4963788;28;93822;-68
2023/04/21 03:03:29;;;;;;;36.28;20.95;;;;;;;;;;4967607;28;93129;-68
2023/04/21 03:06:02;;;;;;;29.08;19.27;;;;;;;;;;4970343;28;95015;-68
2023/04/21 03:08:29;;;;;;;35.85;21.58;;;;;;;;;;4973880;28;93504;-68
2023/04/21 03:10:55;;;;;;;34.22;21.23;;;;;;;;;;4970308;28;94071;-68
2023/04/21 03:13:23;;;;;;;32.08;20.00;;;;;;;;;;4971044;28;93059;-68
2023/04/21 03:15:49;;;;;;;32.65;20.90;;;;;;;;;;4971755;28;94833;-68
2023/04/21 03:18:16;;;;;;;34.33;21.23;;;;;;;;;;4967716;28;93574;-68
2023/04/21 03:20:42;;;;;;;31.15;19.75;;;;;;;;;;4970749;28;93514;-68
2023/04/21 03:23:09;;;;;;;26.85;18.85;;;;;;;;;;4961147;28;91694;-68
2023/04/21 03:25:37;;;;;;;32.58;21.55;;;;;;;;;;4972653;28;92750;-68
2023/04/21 03:28:03;;;;;;;28.70;19.55;;;;;;;;;;4964233;28;93562;-68
2023/04/21 03:30:29;;;;;;;31.00;20.10;;;;;;;;;;4967428;28;94954;-68
2023/04/21 03:32:57;;;;;;;27.98;18.70;;;;;;;;;;4971773;28;95412;-68
2023/04/21 03:35:23;;;;;;;34.30;20.13;;;;;;;;;;4971815;28;93340;-68
2023/04/21 03:37:50;;;;;;;31.30;20.45;;;;;;;;;;4970543;28;92530;-68
2023/04/21 03:40:16;;;;;;;29.10;18.92;;;;;;;;;;4974224;28;94183;-68
2023/04/21 03:42:42;;;;;;;33.88;20.70;;;;;;;;;;4972977;28;93488;-68
2023/04/21 03:45:09;;;;;;;29.92;20.05;;;;;;;;;;4972332;28;94386;-68
2023/04/21 03:47:35;;;;;;;32.83;19.85;;;;;;;;;;4971781;28;93088;-68
2023/04/21 03:50:03;;;;;;;27.35;19.10;;;;;;;;;;4966841;28;92495;-68
2023/04/21 03:52:30;;;;;;;26.35;18.80;;;;;;;;;;4971047;28;92530;-68
2023/04/21 03:54:56;;;;;;;27.92;18.90;;;;;;;;;;4967359;28;95850;-68
2023/04/21 03:57:22;;;;;;;32.15;19.98;;;;;;;;;;4971322;28;92659;-69
2023/04/21 03:59:49;;;;;;;29.85;20.60;;;;;;;;;;4973357;28;93220;-68
2023/04/21 04:02:15;;;;;;;28.83;19.73;;;;;;;;;;4966900;28;92538;-68
2023/04/21 04:04:41;;;;;;;28.55;19.48;;;;;;;;;;4960872;28;93666;-68
2023/04/21 04:07:08;;;;;;;30.33;19.33;;;;;;;;;;4973521;28;93803;-68
2023/04/21 04:09:35;;;;;;;32.60;19.35;;;;;;;;;;4963728;28;92489;-68
2023/04/21 04:12:02;;;;;;;36.67;19.15;;;;;;;;;;4968413;28;94056;-68
2023/04/21 04:14:29;;;;;;;27.35;19.20;;;;;;;;;;4973234;28;93621;-68
2023/04/21 04:16:55;;;;;;;29.20;19.23;;;;;;;;;;4973641;28;92587;-68
2023/04/21 04:19:21;;;;;;;28.88;18.17;;;;;;;;;;4971592;28;94848;-68
2023/04/21 04:21:48;;;;;;;28.67;18.80;;;;;;;;;;4965947;28;95023;-68
2023/04/21 04:24:14;;;;;;;28.00;18.58;;;;;;;;;;4970345;28;94305;-68
2023/04/21 04:26:41;;;;;;;33.15;20.75;;;;;;;;;;4965619;28;93652;-68
2023/04/21 04:29:09;;;;;;;28.42;19.52;;;;;;;;;;4967730;28;92666;-68
2023/04/21 04:31:36;;;;;;;30.42;19.92;;;;;;;;;;4976388;28;93640;-68
2023/04/21 04:34:03;;;;;;;29.20;18.63;;;;;;;;;;4976452;28;93459;-68
2023/04/21 04:36:30;;;;;;;30.95;20.13;;;;;;;;;;4975896;28;91770;-68
2023/04/21 04:38:57;;;;;;;30.63;19.00;;;;;;;;;;4960953;28;92800;-68
2023/04/21 04:41:23;;;;;;;29.05;18.48;;;;;;;;;;4973924;28;94588;-68
2023/04/21 04:43:50;;;;;;;29.58;19.80;;;;;;;;;;4971611;28;95317;-68
2023/04/21 04:46:19;;;;;;;30.00;19.40;;;;;;;;;;4960749;28;95243;-68
2023/04/21 04:48:46;;;;;;;30.13;19.50;;;;;;;;;;4975180;28;92442;-68
2023/04/21 04:51:12;;;;;;;35.15;21.30;;;;;;;;;;4971301;28;94245;-68
2023/04/21 04:53:38;;;;;;;32.33;20.67;;;;;;;;;;4972500;28;93197;-68
2023/04/21 04:56:05;;;;;;;33.65;20.75;;;;;;;;;;4968718;28;92404;-68
2023/04/21 04:58:31;;;;;;;29.95;19.83;;;;;;;;;;4970478;28;94194;-68
2023/04/21 05:00:57;;;;;;;29.23;20.25;;;;;;;;;;4968546;28;92812;-68
2023/04/21 05:03:23;;;;;;;33.22;21.17;;;;;;;;;;4973121;28;92777;-68
2023/04/21 05:05:50;;;;;;;28.88;20.05;;;;;;;;;;4971803;28;93404;-68
2023/04/21 05:08:16;;;;;;;30.50;20.27;;;;;;;;;;4969743;28;94871;-68
2023/04/21 05:10:43;;;;;;;30.27;20.92;;;;;;;;;;4972926;28;95641;-68
2023/04/21 05:13:09;;;;;;;31.40;20.85;;;;;;;;;;4974040;28;93413;-68
2023/04/21 05:15:36;;;;;;;28.42;20.08;;;;;;;;;;4976099;28;92581;-68
2023/04/21 05:18:02;;;;;;;26.75;19.63;;;;;;;;;;4959683;28;94280;-68
2023/04/21 05:20:28;;;;;;;29.40;20.55;;;;;;;;;;4969966;28;93511;-67
2023/04/21 05:22:55;;;;;;;31.70;21.33;;;;;;;;;;4969971;28;92414;-68
2023/04/21 05:25:21;;;;;;;28.30;21.27;;;;;;;;;;4983015;28;93227;-67
2023/04/21 05:27:47;;;;;;;31.50;21.98;;;;;;;;;;4984826;28;94486;-67
2023/04/21 05:30:13;;;;;;;30.33;21.50;;;;;;;;;;4972195;28;93626;-67
2023/04/21 05:32:40;;;;;;;30.83;20.80;;;;;;;;;;4979475;28;96846;-67
2023/04/21 05:35:06;;;;;;;34.13;22.05;;;;;;;;;;4970126;28;92474;-67
2023/04/21 05:37:33;;;;;;;36.00;22.67;;;;;;;;;;4987628;28;93269;-68
2023/04/21 05:39:59;;;;;;;39.25;23.85;;;;;;;;;;4964570;28;93498;-68
2023/04/21 05:42:25;;;;;;;37.67;23.42;;;;;;;;;;4969201;28;92720;-67
2023/04/21 05:44:53;;;;;;;38.20;23.17;;;;;;;;;;4981465;28;93230;-67
2023/04/21 05:47:19;;;;;;;35.92;24.80;;;;;;;;;;4991249;28;94454;-68
2023/04/21 05:49:48;;;;;;;45.22;24.40;;;;;;;;;;4991913;28;91637;-68
2023/04/21 05:52:16;;;;;;;39.42;24.77;;;;;;;;;;4965824;28;92846;-68
2023/04/21 05:54:42;;;;;;;36.00;24.13;;;;;;;;;;4977491;28;92448;-68
2023/04/21 05:57:09;;;;;;;37.30;24.45;;;;;;;;;;4968227;28;95692;-68
2023/04/21 05:59:35;;;;;;;39.63;25.90;;;;;;;;;;4961583;28;93579;-68
2023/04/21 06:02:02;;;;;;;36.78;24.10;;;;;;;;;;4963058;28;92455;-67
2023/04/21 06:04:29;;;;;;;37.67;25.95;;;;;;;;;;4964125;28;94223;-68
2023/04/21 06:06:55;;;;;;;43.10;25.48;;;;;;;;;;4974650;28;93679;-68
2023/04/21 06:09:22;;;;;;;39.88;25.42;;;;;;;;;;4977604;28;92665;-70
2023/04/21 06:11:49;;;;;;;37.95;24.30;;;;;;;;;;4974137;28;94383;-70
2023/04/21 06:14:16;;;;;;;37.13;24.17;;;;;;;;;;4962235;28;91842;-69
2023/04/21 06:16:42;;;;;;;37.63;24.08;;;;;;;;;;4974335;28;93000;-69
2023/04/21 06:19:09;;;;;;;40.15;25.17;;;;;;;;;;4973759;28;93405;-69
2023/04/21 06:21:35;;;;;;;39.65;26.27;;;;;;;;;;4965675;28;95296;-69
2023/04/21 06:24:02;;;;;;;40.63;24.65;;;;;;;;;;4972114;28;96653;-70
2023/04/21 06:26:28;;;;;;;41.20;24.35;;;;;;;;;;4973842;28;94435;-70
2023/04/21 06:28:55;;;;;;;39.30;26.33;;;;;;;;;;4967973;28;92440;-70
2023/04/21 06:31:21;;;;;;;41.25;26.98;;;;;;;;;;4973473;28;93181;-70
2023/04/21 06:33:47;;;;;;;38.15;25.65;;;;;;;;;;4969727;28;92489;-69
2023/04/21 06:36:14;;;;;;;42.10;25.20;;;;;;;;;;4969832;28;93297;-69
2023/04/21 06:38:43;;;;;;;44.78;25.77;;;;;;;;;;4962456;28;93133;-69
2023/04/21 06:41:09;;;;;;;42.50;26.30;;;;;;;;;;4973686;28;92481;-69
2023/04/21 06:43:35;;;;;;;39.67;25.98;;;;;;;;;;4972702;28;93264;-69
2023/04/21 06:46:02;;;;;;;39.08;25.17;;;;;;;;;;4971528;28;95670;-69
2023/04/21 06:48:29;;;;;;;38.08;26.58;;;;;;;;;;4971896;28;92577;-69
2023/04/21 06:50:55;;;;;;;35.67;25.38;;;;;;;;;;4971458;28;94290;-70
2023/04/21 06:53:21;;;;;;;37.35;25.85;;;;;;;;;;4966991;28;93794;-70
2023/04/21 06:55:48;;;;;;;36.83;25.58;;;;;;;;;;4968381;28;94274;-69
2023/04/21 06:58:14;;;;;;;42.72;26.77;;;;;;;;;;4964122;28;93480;-70
2023/04/21 07:00:40;;;;;;;46.67;26.65;;;;;;;;;;4966065;28;92466;-70
2023/04/21 07:03:07;;;;;;;37.50;25.95;;;;;;;;;;4966319;28;93810;-69
2023/04/21 07:05:33;;;;;;;42.03;26.98;;;;;;;;;;4964227;28;94471;-70
2023/04/21 07:07:59;;;;;;;41.72;27.30;;;;;;;;;;4969425;28;92451;-69
2023/04/21 07:10:26;;;;;;;42.72;26.90;;;;;;;;;;4972780;28;94897;-69
2023/04/21 07:12:53;;;;;;;38.75;26.60;;;;;;;;;;4973221;28;93435;-71
2023/04/21 07:15:19;;;;;;;41.80;27.35;;;;;;;;;;4974276;28;92393;-70
2023/04/21 07:17:45;;;;;;;43.88;27.92;;;;;;;;;;4968897;28;93392;-68
2023/04/21 07:20:12;;;;;;;41.25;26.95;;;;;;;;;;4964483;28;92578;-68
2023/04/21 07:22:38;;;;;;;40.30;25.42;;;;;;;;;;4965870;28;93187;-69
2023/04/21 07:25:05;;;;;;;44.42;27.73;;;;;;;;;;4956826;28;93304;-68
2023/04/21 07:27:32;;;;;;;46.33;26.95;;;;;;;;;;4954248;28;91818;-68
2023/04/21 07:29:58;;;;;;;40.20;27.10;;;;;;;;;;4954537;28;92638;-68
2023/04/21 07:32:25;;;;;;;41.80;27.95;;;;;;;;;;4967508;28;94943;-68
2023/04/21 07:34:51;;;;;;;39.42;25.42;;;;;;;;;;4960285;28;96634;-68
2023/04/21 07:37:17;;;;;;;37.72;25.70;;;;;;;;;;4975619;28;95704;-69
2023/04/21 07:39:44;;;;;;;39.42;24.95;;;;;;;;;;4961434;28;92628;-69
2023/04/21 07:42:10;;;;;;;39.40;26.38;;;;;;;;;;4973372;28;93361;-69
2023/04/21 07:44:36;;;;;;;40.60;26.77;;;;;;;;;;4962519;28;94187;-69
2023/04/21 07:47:04;;;;;;;41.72;27.48;;;;;;;;;;4968944;28;93003;-69
2023/04/21 07:49:30;;;;;;;43.95;27.75;;;;;;;;;;4969644;28;94612;-69
2023/04/21 07:51:57;;;;;;;45.67;26.80;;;;;;;;;;4962462;28;91662;-69
2023/04/21 07:54:23;;;;;;;43.28;26.45;;;;;;;;;;4967175;28;92967;-68
2023/04/21 07:56:49;;;;;;;43.17;27.13;;;;;;;;;;4974730;28;94346;-69
2023/04/21 07:59:15;;;;;;;42.20;26.48;;;;;;;;;;4971725;28;94786;-69
2023/04/21 08:01:42;;;;;;;38.05;26.20;;;;;;;;;;4971140;28;96012;-68
2023/04/21 08:04:09;;;;;;;43.40;27.20;;;;;;;;;;4972044;28;93495;-68
2023/04/21 08:06:35;;;;;;;39.53;26.23;;;;;;;;;;4973321;28;92521;-69
2023/04/21 08:09:03;;;;;;;38.78;27.58;;;;;;;;;;4961972;28;94229;-69
2023/04/21 08:11:29;;;;;;;36.28;25.58;;;;;;;;;;4964274;28;94265;-68
2023/04/21 08:13:56;;;;;;;38.90;25.88;;;;;;;;;;4966246;28;92461;-70
2023/04/21 08:16:22;;;;;;;39.08;24.83;;;;;;;;;;4970676;28;93597;-68
2023/04/21 08:18:49;;;;;;;34.85;24.27;;;;;;;;;;4973064;28;94772;-70
2023/04/21 08:21:15;;;;;;;35.28;24.33;;;;;;;;;;4970072;28;94245;-67
2023/04/21 08:23:41;;;;;;;33.88;24.48;;;;;;;;;;4958517;28;96910;-68
2023/04/21 08:26:08;;;;;;;37.83;24.60;;;;;;;;;;4967048;28;92658;-69
2023/04/21 08:28:34;;;;;;;37.85;23.90;;;;;;;;;;4960755;28;94482;-68
2023/04/21 08:31:01;;;;;;;40.28;26.02;;;;;;;;;;4961356;28;94393;-68
2023/04/21 08:33:27;;;;;;;41.47;25.25;;;;;;;;;;4967360;28;92758;-69
2023/04/21 08:35:54;;;;;;;37.05;24.73;;;;;;;;;;4969623;28;95706;-69
2023/04/21 08:38:34;;;;;;;37.03;26.30;;;;;;;;;;4972791;28;93359;-69
2023/04/21 08:41:01;;;;;;;35.05;25.25;;;;;;;;;;4971418;28;91970;-69
2023/04/21 08:43:27;;;;;;;38.50;26.13;;;;;;;;;;4969262;28;92499;-69
2023/04/21 08:45:54;;;;;;;34.00;24.75;;;;;;;;;;4971552;28;92540;-70
2023/04/21 08:48:22;;;;;;;42.00;26.38;;;;;;;;;;4968207;28;94987;-68
2023/04/21 08:50:49;;;;;;;42.38;26.85;;;;;;;;;;4963481;28;94491;-68
2023/04/21 08:53:18;;;;;;;39.17;26.17;;;;;;;;;;4965793;28;92824;-67
2023/04/21 08:55:45;;;;;;;37.08;24.80;;;;;;;;;;4971733;28;94289;-68
2023/04/21 08:58:21;;;;;;;35.53;25.35;;;;;;;;;;4968120;28;93601;-68
2023/04/21 09:00:48;;;;;;;37.42;25.45;;;;;;;;;;4960969;28;92781;-67
2023/04/21 09:03:24;;;;;;;36.38;24.65;;;;;;;;;;4956598;28;94455;-68
2023/04/21 09:05:58;;;;;;;35.83;24.13;;;;;;;;;;4970093;28;91782;-67
2023/04/21 09:08:26;;;;;;;35.78;22.80;;;;;;;;;;4973004;28;92740;-67
2023/04/21 09:10:53;;;;;;;33.22;23.63;;;;;;;;;;4972885;28;93453;-67
2023/04/21 09:13:27;;;;;;;34.95;23.13;;;;;;;;;;4971413;28;94884;-67
2023/04/21 09:15:53;;;;;;;34.45;23.85;;;;;;;;;;4974366;28;95906;-67
2023/04/21 09:18:21;;;;;;;31.83;22.63;;;;;;;;;;4975244;28;93645;-67
2023/04/21 09:20:49;;;;;;;36.53;24.20;;;;;;;;;;4973768;28;92451;-67
2023/04/21 09:23:15;;;;;;;31.80;23.13;;;;;;;;;;4956705;28;94357;-67
2023/04/21 09:25:43;;;;;;;39.42;25.23;;;;;;;;;;4972289;28;93622;-67
2023/04/21 09:28:10;;;;;;;31.98;23.80;;;;;;;;;;4971861;28;94591;-67
2023/04/21 09:30:39;;;;;;;32.65;22.38;;;;;;;;;;4975476;28;93059;-67
2023/04/21 09:33:05;;;;;;;37.45;24.42;;;;;;;;;;4975052;28;92482;-67
2023/04/21 09:35:51;;;;;;;30.30;21.15;;;;;;;;;;4968050;28;93176;-67
2023/04/21 09:38:21;;;;;;;31.67;22.67;;;;;;;;;;4964058;28;95904;-67
2023/04/21 09:40:56;;;;;;;35.10;24.27;;;;;;;;;;4974891;28;92406;-67
2023/04/21 09:43:23;;;;;;;34.13;22.90;;;;;;;;;;4972854;28;94315;-67
2023/04/21 09:45:49;;;;;;;35.08;23.30;;;;;;;;;;4969178;28;95700;-67
2023/04/21 09:48:16;;;;;;;39.35;27.15;;;;;;;;;;4974026;28;92530;-67
2023/04/21 09:50:45;;;;;;;37.58;23.83;;;;;;;;;;4979860;28;94594;-67
2023/04/21 09:53:15;;;;;;;33.50;22.30;;;;;;;;;;4964417;28;92410;-66
2023/04/21 09:55:46;;;;;;;27.73;20.55;;;;;;;;;;4971674;28;94366;-66
2023/04/21 09:58:14;;;;;;;33.38;20.88;;;;;;;;;;4975680;28;94420;-66
2023/04/21 10:00:41;;;;;;;33.10;21.65;;;;;;;;;;4975658;28;92442;-67
2023/04/21 10:03:10;;;;;;;26.77;19.73;;;;;;;;;;4973498;28;94921;-66
2023/04/21 10:05:37;;;;;;;28.08;20.33;;;;;;;;;;4982591;28;93882;-67
2023/04/21 10:08:10;;;;;;;;;;;;;;;;;;4977022;28;93255;-66
2023/04/21 10:10:36;;;;;;;25.20;19.20;;;;;;;;;;4962771;28;123612;-67
2023/04/21 10:13:03;;;;;;;30.27;21.45;;;;;;;;;;4963606;28;92669;-67
2023/04/21 10:15:30;;;;;;;32.45;20.48;;;;;;;;;;4973456;28;93659;-66
2023/04/21 10:18:13;;;;;;;25.92;18.23;;;;;;;;;;4962481;28;93437;-65
2023/04/21 10:20:58;;;;;;;31.17;22.33;;;;;;;;;;4956371;28;94815;-67
2023/04/21 10:23:26;;;;;;;26.98;18.98;;;;;;;;;;4972135;28;93662;-69
2023/04/21 10:25:52;;;;;;;29.77;21.33;;;;;;;;;;4971589;28;94362;-68
2023/04/21 10:28:19;;;;;;;27.83;19.10;;;;;;;;;;4952726;28;94994;-69
2023/04/21 10:30:45;;;;;;;32.10;19.67;;;;;;;;;;4956961;28;95514;-68
2023/04/21 10:33:16;;;;;;;38.70;19.55;;;;;;;;;;4972609;28;92575;-68
2023/04/21 10:36:01;;;;;;;25.85;17.65;;;;;;;;;;4969570;28;93298;-69
2023/04/21 10:38:34;;;;;;;26.48;20.83;;;;;;;;;;4960387;28;93359;-69
2023/04/21 10:41:20;;;;;;;26.10;20.23;;;;;;;;;;4964835;28;92519;-69
2023/04/21 10:43:49;;;;;;;28.17;18.08;;;;;;;;;;4956592;28;93127;-68
2023/04/21 10:46:30;;;;;;;26.33;18.92;;;;;;;;;;4968835;28;92621;-68
2023/04/21 10:49:09;;;;;;;34.20;22.63;;;;;;;;;;4969716;28;93498;-69
2023/04/21 10:51:54;;;;;;;30.08;21.73;;;;;;;;;;4968838;28;93878;-68
2023/04/21 10:54:21;;;;;;;27.10;19.67;;;;;;;;;;4970832;28;96120;-69
2023/04/21 10:56:51;;;;;;;33.35;22.10;;;;;;;;;;4953086;28;95537;-68
2023/04/21 10:59:18;;;;;;;27.80;20.50;;;;;;;;;;4963725;28;93614;-68
2023/04/21 11:01:44;;;;;;;28.85;20.13;;;;;;;;;;4969413;28;92999;-68
2023/04/21 11:04:14;;;;;;;27.23;19.38;;;;;;;;;;4971488;28;93920;-68
2023/04/21 11:06:41;;;;;;;27.90;21.05;;;;;;;;;;4974360;28;94434;-68
2023/04/21 11:09:08;;;;;;;30.13;21.17;;;;;;;;;;4973612;28;92956;-69
2023/04/21 11:11:39;;;;;;;27.95;20.55;;;;;;;;;;4972356;28;93324;-69
2023/04/21 11:14:05;;;;;;;26.30;19.92;;;;;;;;;;4954943;28;93479;-69
2023/04/21 11:16:32;;;;;;;28.63;20.80;;;;;;;;;;4964140;28;92497;-68
2023/04/21 11:18:58;;;;;;;25.95;19.40;;;;;;;;;;4959417;28;96305;-69
2023/04/21 11:21:28;;;;;;;28.08;20.50;;;;;;;;;;4973329;28;92484;-70
2023/04/21 11:23:55;;;;;;;26.02;18.98;;;;;;;;;;4954234;28;94458;-70
2023/04/21 11:26:32;;;;;;;27.00;19.45;;;;;;;;;;4956316;28;93914;-68
2023/04/21 11:29:02;;;;;;;31.30;19.48;;;;;;;;;;4954730;28;92443;-70
2023/04/21 11:31:29;;;;;;;25.67;18.92;;;;;;;;;;4954520;28;93394;-69
2023/04/21 11:33:57;;;;;;;26.73;17.42;;;;;;;;;;4954463;28;94879;-70
2023/04/21 11:36:23;;;;;;;27.25;18.65;;;;;;;;;;4969437;28;91785;-71
2023/04/21 11:38:50;;;;;;;25.52;18.60;;;;;;;;;;4972450;28;93541;-73
2023/04/21 11:41:20;;;;;;;23.80;17.00;;;;;;;;;;4973106;28;92610;-72
2023/04/21 11:43:46;;;;;;;30.33;20.90;;;;;;;;;;4970272;28;94851;-74
2023/04/21 11:46:16;;;;;;;28.63;21.02;;;;;;;;;;4967487;28;94638;-71
2023/04/21 11:48:43;;;;;;;30.88;20.42;;;;;;;;;;4971307;28;94554;-69
2023/04/21 11:51:13;;;;;;;29.38;20.55;;;;;;;;;;4962380;28;93445;-69
2023/04/21 11:53:39;;;;;;;31.02;19.38;;;;;;;;;;4957523;28;92589;-68
2023/04/21 11:56:06;;;;;;;30.65;18.90;;;;;;;;;;4971036;28;92584;-71
2023/04/21 11:58:32;;;;;;;29.48;20.23;;;;;;;;;;4968541;28;93057;-68
2023/04/21 12:01:05;;;;;;;29.63;19.98;;;;;;;;;;4977268;28;92367;-68
2023/04/21 12:03:32;;;;;;;27.30;18.13;;;;;;;;;;4974046;28;92468;-74
2023/04/21 12:05:58;;;;;;;30.38;18.38;;;;;;;;;;4970610;28;94077;-70
2023/04/21 12:08:28;;;;;;;26.42;18.73;;;;;;;;;;4971130;28;95229;-69
2023/04/21 12:10:54;;;;;;;24.83;17.60;;;;;;;;;;4970791;28;96640;-69
2023/04/21 12:13:21;;;;;;;27.98;18.90;;;;;;;;;;4971349;28;93436;-69
2023/04/21 12:15:48;;;;;;;31.27;18.15;;;;;;;;;;4963772;28;92539;-68
2023/04/21 12:18:14;;;;;;;26.25;17.23;;;;;;;;;;4970791;28;94164;-69
2023/04/21 12:20:51;;;;;;;23.33;17.13;;;;;;;;;;4975476;28;93431;-67
2023/04/21 12:23:18;;;;;;;26.30;16.67;;;;;;;;;;4967578;28;93030;-68
2023/04/21 12:25:47;;;;;;;19.15;15.23;;;;;;;;;;4973393;28;92549;-71
2023/04/21 12:28:14;;;;;;;25.08;15.15;;;;;;;;;;4972753;28;92528;-70
2023/04/21 12:30:41;;;;;;;20.30;15.15;;;;;;;;;;4964850;28;93200;-68
2023/04/21 12:33:08;;;;;;;19.15;15.23;;;;;;;;;;4962498;28;96757;-68
2023/04/21 12:35:34;;;;;;;22.60;15.77;;;;;;;;;;4972924;28;92975;-68
2023/04/21 12:38:01;;;;;;;22.00;14.77;;;;;;;;;;4973059;28;94246;-70
2023/04/21 12:40:27;;;;;;;23.75;15.20;;;;;;;;;;4970173;28;92519;-67
2023/04/21 12:42:53;;;;;;;23.80;16.45;;;;;;;;;;4974661;28;93799;-67
2023/04/21 12:45:19;;;;;;;25.55;17.90;;;;;;;;;;4965251;28;93292;-70
2023/04/21 12:47:46;;;;;;;23.10;16.30;;;;;;;;;;4967175;28;92570;-70
2023/04/21 12:50:13;;;;;;;29.05;18.17;;;;;;;;;;4973810;28;94930;-70
2023/04/21 12:52:39;;;;;;;24.70;16.80;;;;;;;;;;4967500;28;92825;-69
2023/04/21 12:55:06;;;;;;;23.90;16.88;;;;;;;;;;4967373;28;92429;-68
2023/04/21 12:57:32;;;;;;;22.83;17.05;;;;;;;;;;4958209;28;95502;-69
2023/04/21 12:59:59;;;;;;;25.10;17.60;;;;;;;;;;4970539;28;93597;-68
2023/04/21 13:02:25;;;;;;;26.50;18.60;;;;;;;;;;4974804;28;93046;-68
2023/04/21 13:04:52;;;;;;;29.05;19.85;;;;;;;;;;4975855;28;93197;-70
2023/04/21 13:07:20;;;;;;;30.33;19.25;;;;;;;;;;4973666;28;92478;-69
2023/04/21 13:09:47;;;;;;;26.80;18.80;;;;;;;;;;4976229;28;93244;-68
2023/04/21 13:12:13;;;;;;;29.30;20.58;;;;;;;;;;4970689;28;93630;-69
2023/04/21 13:14:39;;;;;;;33.05;19.75;;;;;;;;;;4968165;28;91687;-68
2023/04/21 13:17:06;;;;;;;23.02;16.45;;;;;;;;;;4972464;28;92951;-69
2023/04/21 13:19:32;;;;;;;29.30;19.92;;;;;;;;;;4969456;28;93525;-69
2023/04/21 13:22:00;;;;;;;32.22;20.30;;;;;;;;;;4970968;28;96222;-68
2023/04/21 13:24:26;;;;;;;26.05;18.80;;;;;;;;;;4987108;28;95690;-69
2023/04/21 13:26:52;;;;;;;26.67;18.20;;;;;;;;;;4975510;28;92980;-68
2023/04/21 13:29:18;;;;;;;30.55;20.10;;;;;;;;;;4973341;28;93266;-69
2023/04/21 13:31:45;;;;;;;34.50;20.63;;;;;;;;;;4975956;28;93470;-69
2023/04/21 13:34:11;;;;;;;30.95;20.17;;;;;;;;;;4965178;28;92529;-69
2023/04/21 13:36:38;;;;;;;29.98;19.33;;;;;;;;;;4959121;28;93924;-69
2023/04/21 13:39:07;;;;;;;29.27;20.73;;;;;;;;;;4973496;28;92907;-69
2023/04/21 13:41:34;;;;;;;35.97;19.85;;;;;;;;;;4980398;28;92647;-69
2023/04/21 13:44:00;;;;;;;31.83;20.98;;;;;;;;;;4982384;28;94348;-69
2023/04/21 13:46:26;;;;;;;28.63;20.67;;;;;;;;;;4968696;28;97618;-71
2023/04/21 13:48:53;;;;;;;27.98;20.27;;;;;;;;;;4968697;28;93380;-70
2023/04/21 13:51:19;;;;;;;30.08;20.45;;;;;;;;;;4970518;28;93453;-69
2023/04/21 13:53:46;;;;;;;27.58;20.10;;;;;;;;;;4963295;28;92561;-69
2023/04/21 13:56:12;;;;;;;23.67;16.48;;;;;;;;;;4974698;28;94013;-69
2023/04/21 13:58:39;;;;;;;30.65;19.10;;;;;;;;;;4964314;28;94350;-69
2023/04/21 14:01:06;;;;;;;28.13;18.73;;;;;;;;;;4972577;28;92484;-69
2023/04/21 14:03:32;;;;;;;25.27;17.92;;;;;;;;;;4955253;28;93243;-69
2023/04/21 14:05:59;;;;;;;29.52;19.30;;;;;;;;;;4955569;28;94645;-69
2023/04/21 14:08:25;;;;;;;26.92;18.02;;;;;;;;;;4966132;28;92473;-69
2023/04/21 14:10:51;;;;;;;22.83;16.55;;;;;;;;;;4976254;28;94822;-69
2023/04/21 14:13:18;;;;;;;25.42;16.45;;;;;;;;;;4969270;28;92805;-69
2023/04/21 14:16:03;;;;;;;31.90;17.98;;;;;;;;;;4972937;28;93283;-69
2023/04/21 14:18:29;;;;;;;26.25;17.83;;;;;;;;;;4966496;28;93359;-69